Campbell River Airport
CYBL : now visible

Airfield :











YOU CAN JOIN US ON...

 
LOGIN :

Register | Disclaimer

   EN    FR    IT 

 









Legend :    VFR   Marginal VFR   IFR   Intensive IFR   Very Intensive IFR
Visi :
Ceiling :
>= 8 km
>= 3000ft
5 to 8 km
1000 to 3000 ft
1500m to 5 km
500 to 1000 ft
800 to 1500m
200 to 500 ft
< 800m
< 200 ft
Symbols :   Thunderstorms  Fog  Heavy snow  Heavy precipitations  Wind > 20 kt






- Airport Elevation : 346 ft
- IATA code : YBL


CYBL - Campbell River

CURRENT METAR :
  • 271600Z 13014G22KT 7SM BKN010 BKN025 OVC070 08/07 A3003 RMK SC5SC2AC1 INTMT -RA SLP175

EXPIRED METARs :
  • 271500Z 13018G25KT 8SM -RA BKN010 BKN025 OVC055 08/07 A3003 RMK SC6SC1SC1 SLP172
  • 271441Z 12014G25KT 8SM -RA BKN010 BKN025 OVC055 08/07 A3003 RMK SC5SC2SC1 SLP173
  • 271400Z 12022G32KT 8SM -RA SCT010 BKN022 OVC055 08/07 A3003 RMK SC4SC2SC2 SLP173

TAF TAF CYBL
Valid from the 27 at 16:00 until the 28 at 04:00 UTC


271538Z 2716/2804 13018G28KT P6SM -RA SCT012 OVC025
TEMPO 2716/2801 2SM -RA BR FEW004 OVC008
BECMG 2722/2724 13010KT
FM280100 12005KT P6SM FEW008 BKN030 RMK NXT FCST BY 271900Z
CZVR FIR / North America



MET'MAP, your aeronautical weather chart ! - Copyright ORBIFLY December 2007 - Disclaimer

ORBIFLY MET'MAP TEAM :

Programming & Development : Alexandra Zaïnal
Concept & original design : Baudouin d'Aumeries
Assistance for programming : Marc-Olivier Méhu
Technical & hardware support : Manuel Goepfert

Contact : metmap@orbifly.com




SOURCES & CREDITS :

   NOAA       Earth
Advisory